Time;durP1;ratioP1;P1;durP2;ratioP2;P2;SDS_P1;SDS_P2;PMS_P1;PMS_P2;Temp;Humidity;BMP_temperature;BMP_pressure;BME280_temperature;BME280_humidity;BME280_pressure;Samples;Min_cycle;Max_cycle;Signal;HPM_P1;HPM_P2
2022/03/03 00:01:25;;;;;;;28.25;18.35;;;;;;;0.10;67.83;93139.38;5091864;28;20020;-53
2022/03/03 00:03:50;;;;;;;27.35;17.92;;;;;;;0.02;67.83;93143.78;5074147;28;20028;-52
2022/03/03 00:06:16;;;;;;;27.70;19.38;;;;;;;0.07;68.20;93146.50;5071546;28;20021;-51
2022/03/03 00:08:41;;;;;;;29.25;19.23;;;;;;;0.09;68.92;93138.63;5071441;28;20025;-55
2022/03/03 00:11:07;;;;;;;33.65;19.67;;;;;;;0.03;68.55;93126.28;5071294;28;20025;-55
2022/03/03 00:13:32;;;;;;;27.50;19.77;;;;;;;0.10;68.57;93133.94;5071585;28;20020;-55
2022/03/03 00:15:58;;;;;;;33.60;20.92;;;;;;;-0.07;68.59;93128.47;5071481;28;20025;-54
2022/03/03 00:18:23;;;;;;;32.78;20.52;;;;;;;0.04;68.41;93128.50;5071334;28;20493;-50
2022/03/03 00:20:49;;;;;;;30.08;19.55;;;;;;;0.12;67.96;93124.09;5071498;28;20024;-55
2022/03/03 00:23:14;;;;;;;33.65;21.58;;;;;;;0.18;68.32;93124.09;5071473;28;20028;-53
2022/03/03 00:25:40;;;;;;;38.25;24.33;;;;;;;0.21;67.95;93123.13;5071508;28;20021;-54
2022/03/03 00:28:05;;;;;;;35.30;20.65;;;;;;;0.13;68.30;93130.25;5071014;28;20026;-54
2022/03/03 00:30:31;;;;;;;57.53;30.33;;;;;;;0.17;68.23;93119.91;5071518;28;20024;-50
2022/03/03 00:32:56;;;;;;;92.78;46.28;;;;;;;0.26;68.32;93127.84;5071157;28;20024;-50
2022/03/03 00:35:22;;;;;;;45.33;25.48;;;;;;;0.00;68.37;93117.88;5071020;28;20476;-51
2022/03/03 00:37:47;;;;;;;47.63;30.23;;;;;;;0.06;67.91;93122.59;5071254;28;20077;-51
2022/03/03 00:40:13;;;;;;;34.17;22.27;;;;;;;0.07;68.46;93121.34;5074834;28;20016;-54
2022/03/03 00:42:39;;;;;;;33.30;20.40;;;;;;;0.07;68.03;93110.50;5091437;28;20028;-54
2022/03/03 00:45:05;;;;;;;31.17;19.60;;;;;;;0.14;68.32;93121.63;5090952;28;20073;-54
2022/03/03 00:47:30;;;;;;;30.05;19.52;;;;;;;0.14;68.35;93118.91;5091285;28;20016;-59
2022/03/03 00:49:56;;;;;;;28.63;19.40;;;;;;;0.16;67.80;93115.69;5091022;28;20028;-69
2022/03/03 00:52:21;;;;;;;27.88;18.08;;;;;;;0.15;67.87;93119.66;5090973;28;20063;-60
2022/03/03 00:54:47;;;;;;;31.48;19.13;;;;;;;0.16;67.21;93119.16;5090754;28;20046;-64
2022/03/03 00:57:12;;;;;;;26.98;17.05;;;;;;;0.00;68.33;93119.88;5089803;28;20047;-62
2022/03/03 00:59:38;;;;;;;25.30;16.08;;;;;;;0.00;68.98;93117.88;5091066;28;20024;-62
2022/03/03 01:02:03;;;;;;;23.75;16.42;;;;;;;0.06;68.54;93114.44;5091122;28;20052;-61
2022/03/03 01:04:29;;;;;;;29.88;16.85;;;;;;;0.09;68.17;93113.47;5090721;28;20500;-61
2022/03/03 01:06:54;;;;;;;24.80;16.50;;;;;;;0.01;67.91;93110.47;5090950;28;20055;-60
2022/03/03 01:09:20;;;;;;;22.65;15.85;;;;;;;-0.06;68.78;93110.94;5090644;28;20020;-60
2022/03/03 01:11:45;;;;;;;25.95;15.98;;;;;;;-0.05;68.12;93115.91;5090834;28;20072;-68
2022/03/03 01:14:10;;;;;;;26.50;15.57;;;;;;;-0.05;68.65;93105.06;5090861;28;20408;-68
2022/03/03 01:16:36;;;;;;;21.75;14.77;;;;;;;0.00;67.93;93104.31;5090437;28;20035;-68
2022/03/03 01:19:01;;;;;;;24.48;15.85;;;;;;;-0.12;69.62;93102.06;5090738;28;20044;-67
2022/03/03 01:21:27;;;;;;;22.55;14.00;;;;;;;-0.11;69.07;93098.84;5089838;28;20024;-67
2022/03/03 01:23:53;;;;;;;24.00;13.95;;;;;;;-0.04;68.54;93101.09;5090469;28;20673;-67
2022/03/03 01:26:19;;;;;;;23.45;14.60;;;;;;;-0.12;68.85;93099.34;5090777;28;20450;-58
2022/03/03 01:28:44;;;;;;;23.90;14.18;;;;;;;-0.22;69.18;93104.22;5090163;28;20032;-60
2022/03/03 01:31:10;;;;;;;22.98;15.57;;;;;;;-0.33;68.38;93082.50;5090593;28;20019;-60
2022/03/03 01:33:35;;;;;;;25.27;14.95;;;;;;;-0.18;68.65;93093.91;5090278;28;20074;-50
2022/03/03 01:36:01;;;;;;;23.33;15.43;;;;;;;-0.20;68.18;93084.78;5090418;28;20030;-52
2022/03/03 01:38:26;;;;;;;28.35;16.05;;;;;;;-0.29;68.44;93080.31;5090175;28;20515;-54
2022/03/03 01:40:52;;;;;;;23.67;13.73;;;;;;;-0.21;68.53;93099.56;5099576;28;20034;-56
2022/03/03 01:43:17;;;;;;;23.35;15.80;;;;;;;-0.19;69.12;93095.13;5110443;28;20034;-55
2022/03/03 01:45:43;;;;;;;24.35;15.88;;;;;;;-0.10;68.79;93092.19;5110860;28;20028;-55
2022/03/03 01:48:08;;;;;;;24.90;15.85;;;;;;;-0.12;68.41;93083.81;5110666;28;20385;-55
2022/03/03 01:50:34;;;;;;;24.73;15.23;;;;;;;-0.13;68.61;93089.72;5110797;28;20527;-56
2022/03/03 01:52:59;;;;;;;27.38;15.95;;;;;;;-0.31;69.43;93071.16;5110213;28;20027;-55
2022/03/03 01:55:25;;;;;;;26.20;16.45;;;;;;;-0.26;70.09;93086.72;5110373;28;20047;-55
2022/03/03 01:57:51;;;;;;;24.33;15.05;;;;;;;-0.16;68.79;93083.31;5083826;28;20421;-54
2022/03/03 02:00:17;;;;;;;32.22;16.95;;;;;;;-0.25;69.95;93083.53;5072155;28;20124;-53
2022/03/03 02:02:42;;;;;;;24.13;14.98;;;;;;;-0.32;69.99;93075.84;5078264;28;20031;-59
2022/03/03 02:05:08;;;;;;;30.80;16.40;;;;;;;-0.33;69.49;93079.78;5090023;28;20028;-52
2022/03/03 02:07:35;;;;;;;27.20;16.48;;;;;;;-0.23;69.45;93080.31;5090237;28;20020;-49
2022/03/03 02:10:02;;;;;;;23.75;15.18;;;;;;;-0.38;69.76;93077.78;5094357;28;20028;-52
2022/03/03 02:12:27;;;;;;;23.83;15.88;;;;;;;-0.39;70.10;93075.59;5094348;28;20024;-55
2022/03/03 02:14:52;;;;;;;23.48;16.30;;;;;;;-0.35;69.81;93082.25;5094157;28;20560;-56
2022/03/03 02:17:18;;;;;;;22.92;15.73;;;;;;;-0.47;70.54;93075.28;5093501;28;20024;-55
2022/03/03 02:19:44;;;;;;;28.75;17.20;;;;;;;-0.55;70.79;93054.56;5073912;28;20029;-55
2022/03/03 02:22:10;;;;;;;24.73;16.13;;;;;;;-0.30;70.26;93076.09;5073865;28;20028;-56
2022/03/03 02:24:36;;;;;;;26.95;16.65;;;;;;;-0.33;69.77;93071.66;5073860;28;20048;-55
2022/03/03 02:27:03;;;;;;;28.40;16.10;;;;;;;-0.30;70.69;93070.66;5073715;28;20032;-55
2022/03/03 02:29:29;;;;;;;27.80;16.52;;;;;;;-0.42;70.05;93058.31;5073452;28;20482;-54
2022/03/03 02:31:54;;;;;;;22.58;14.70;;;;;;;-0.26;69.96;93075.88;5073656;28;20028;-55
2022/03/03 02:34:20;;;;;;;31.40;17.67;;;;;;;-0.62;70.02;93050.34;5088882;28;20487;-56
2022/03/03 02:36:45;;;;;;;31.27;17.55;;;;;;;-0.47;70.40;93069.88;5093461;28;20050;-54
2022/03/03 02:39:11;;;;;;;30.50;17.05;;;;;;;-0.31;70.74;93071.91;5093786;28;20073;-55
2022/03/03 02:41:37;;;;;;;30.15;17.38;;;;;;;-0.26;69.79;93073.16;5109153;28;20059;-55
2022/03/03 02:44:03;;;;;;;26.20;16.20;;;;;;;-0.20;69.19;93068.50;5113894;28;20027;-54
2022/03/03 02:46:29;;;;;;;31.02;17.80;;;;;;;-0.35;69.72;93057.84;5113688;28;20110;-55
2022/03/03 02:48:55;;;;;;;28.20;17.30;;;;;;;-0.17;69.82;93070.97;5113854;28;20049;-58
2022/03/03 02:51:22;;;;;;;27.67;15.90;;;;;;;-0.06;68.98;93068.28;5113922;28;20026;-52
2022/03/03 02:53:47;;;;;;;30.13;18.67;;;;;;;0.05;69.79;93066.81;5113887;28;20100;-57
2022/03/03 02:56:13;;;;;;;27.42;18.15;;;;;;;0.00;69.05;93069.03;5113385;28;20519;-57
2022/03/03 02:58:38;;;;;;;31.85;17.45;;;;;;;0.04;68.13;93070.78;5113665;28;20023;-57
2022/03/03 03:01:05;;;;;;;25.50;16.33;;;;;;;0.07;67.80;93067.81;5113481;28;20039;-53
2022/03/03 03:03:30;;;;;;;23.50;15.38;;;;;;;0.00;68.37;93065.59;5098361;28;20488;-54
2022/03/03 03:05:56;;;;;;;26.10;17.05;;;;;;;-0.17;69.54;93068.25;5093022;28;20027;-53
2022/03/03 03:08:22;;;;;;;27.45;16.48;;;;;;;-0.14;69.34;93063.81;5092957;28;20032;-52
2022/03/03 03:10:47;;;;;;;26.42;18.23;;;;;;;-0.38;69.99;93068.91;5093110;28;20024;-53
2022/03/03 03:13:14;;;;;;;27.33;17.00;;;;;;;-0.39;70.62;93065.44;5092888;28;20483;-49
2022/03/03 03:15:45;;;;;;;26.10;16.15;;;;;;;-0.35;69.89;93073.38;5093011;28;20077;-50
2022/03/03 03:18:16;;;;;;;30.88;16.67;;;;;;;-0.55;71.27;93068.09;5085028;28;20055;-51
2022/03/03 03:20:44;;;;;;;25.75;16.67;;;;;;;-0.68;72.01;93070.50;5071571;28;20028;-53
2022/03/03 03:23:11;;;;;;;28.52;17.15;;;;;;;-0.62;72.35;93066.59;5072675;28;20032;-51
2022/03/03 03:25:37;;;;;;;28.00;17.45;;;;;;;-0.50;71.89;93076.28;5072509;28;20056;-54
2022/03/03 03:28:05;;;;;;;27.75;17.35;;;;;;;-0.50;71.79;93070.84;5072279;28;20036;-49
2022/03/03 03:30:31;;;;;;;24.02;16.75;;;;;;;-0.65;72.71;93066.84;5087309;28;20034;-51
2022/03/03 03:32:56;;;;;;;29.20;17.02;;;;;;;-0.62;72.06;93071.28;5092703;28;20032;-48
2022/03/03 03:35:22;;;;;;;38.75;18.20;;;;;;;-0.60;73.54;93069.56;5092248;28;20028;-49
2022/03/03 03:37:48;;;;;;;25.40;15.48;;;;;;;-0.50;72.09;93070.09;5092697;28;20024;-50
2022/03/03 03:40:14;;;;;;;24.80;15.75;;;;;;;-0.47;72.12;93071.84;5096401;28;20599;-51
2022/03/03 03:42:39;;;;;;;26.75;16.75;;;;;;;-0.69;72.51;93074.47;5112936;28;20024;-52
2022/03/03 03:45:05;;;;;;;23.35;16.38;;;;;;;-0.53;72.17;93068.34;5112782;28;20079;-57
2022/03/03 03:47:31;;;;;;;25.13;16.27;;;;;;;-0.50;72.29;93070.09;5112837;28;20027;-51
2022/03/03 03:49:56;;;;;;;27.00;16.27;;;;;;;-0.35;71.69;93065.97;5112858;28;20058;-60
2022/03/03 03:52:22;;;;;;;22.05;14.13;;;;;;;-0.32;70.96;93062.28;5112467;28;20481;-61
2022/03/03 03:54:47;;;;;;;21.98;14.63;;;;;;;-0.25;70.54;93055.66;5112281;28;20031;-58
2022/03/03 03:57:12;;;;;;;23.85;15.55;;;;;;;-0.23;70.70;93061.31;5112226;28;20060;-58
2022/03/03 03:59:38;;;;;;;25.05;15.27;;;;;;;-0.13;69.95;93073.44;5112560;28;20027;-58
2022/03/03 04:02:03;;;;;;;22.80;15.52;;;;;;;-0.25;70.97;93066.50;5109842;28;20035;-59
2022/03/03 04:04:29;;;;;;;30.13;17.75;;;;;;;-0.39;71.44;93070.88;5092152;28;20055;-58
2022/03/03 04:06:54;;;;;;;30.17;18.15;;;;;;;-0.43;70.65;93053.34;5092118;28;20031;-58
2022/03/03 04:09:20;;;;;;;31.58;18.35;;;;;;;-0.30;70.49;93062.53;5091718;28;20394;-58
2022/03/03 04:11:45;;;;;;;30.20;17.08;;;;;;;-0.24;70.57;93063.28;5092039;28;20023;-58
2022/03/03 04:14:11;;;;;;;25.73;16.95;;;;;;;-0.29;70.37;93060.56;5091900;28;20030;-60
2022/03/03 04:16:36;;;;;;;28.77;17.92;;;;;;;-0.28;70.69;93062.06;5091903;28;20523;-59
2022/03/03 04:19:02;;;;;;;28.77;17.85;;;;;;;-0.30;70.93;93062.53;5076407;28;20548;-61
2022/03/03 04:21:27;;;;;;;24.13;16.90;;;;;;;-0.23;71.05;93056.66;5071582;28;20032;-61
2022/03/03 04:23:52;;;;;;;26.98;18.60;;;;;;;-0.18;71.17;93063.31;5071550;28;20052;-61
2022/03/03 04:26:18;;;;;;;30.58;17.73;;;;;;;-0.05;71.24;93061.63;5082524;28;20020;-60
2022/03/03 04:28:43;;;;;;;26.33;17.08;;;;;;;-0.10;70.35;93056.19;5091323;28;20480;-60
2022/03/03 04:31:09;;;;;;;29.38;16.23;;;;;;;-0.18;70.99;93053.22;5091560;28;20035;-58
2022/03/03 04:33:34;;;;;;;28.02;17.55;;;;;;;-0.28;70.90;93059.34;5091630;28;20027;-62
2022/03/03 04:36:00;;;;;;;26.83;16.50;;;;;;;-0.18;70.87;93057.88;5091485;28;20435;-61
2022/03/03 04:38:25;;;;;;;29.75;17.25;;;;;;;-0.33;70.61;93041.81;5091615;28;20134;-65
2022/03/03 04:40:51;;;;;;;29.92;18.55;;;;;;;-0.40;71.25;93036.88;5090942;28;20027;-62
2022/03/03 04:43:16;;;;;;;28.20;17.27;;;;;;;-0.30;71.30;93042.78;5091342;28;20420;-63
2022/03/03 04:45:42;;;;;;;27.90;18.00;;;;;;;-0.38;70.84;93034.41;5090955;28;20492;-62
2022/03/03 04:48:08;;;;;;;29.80;17.40;;;;;;;-0.36;71.46;93047.47;5090985;28;20028;-62
2022/03/03 04:50:34;;;;;;;29.33;18.08;;;;;;;-0.34;71.85;93048.47;5090988;28;20490;-63
2022/03/03 04:52:59;;;;;;;26.73;17.95;;;;;;;-0.48;72.20;93052.13;5090275;28;20103;-63
2022/03/03 04:55:25;;;;;;;29.25;19.30;;;;;;;-0.54;72.21;93029.66;5090290;28;20440;-62
2022/03/03 04:57:50;;;;;;;50.95;32.22;;;;;;;-0.68;72.62;93044.16;5091102;28;20024;-61
2022/03/03 05:00:17;;;;;;;39.63;24.27;;;;;;;-0.66;73.25;93040.94;5090800;28;20035;-61
2022/03/03 05:02:43;;;;;;;35.92;22.33;;;;;;;-0.45;72.32;93037.56;5082439;28;20039;-60
2022/03/03 05:05:08;;;;;;;31.25;20.20;;;;;;;-0.38;72.24;93045.25;5070597;28;20016;-58
2022/03/03 05:07:34;;;;;;;30.27;19.42;;;;;;;-0.43;72.28;93031.66;5070756;28;20040;-58
2022/03/03 05:10:00;;;;;;;29.35;17.98;;;;;;;-0.31;71.91;93036.66;5070542;28;20033;-58
2022/03/03 05:12:26;;;;;;;31.25;18.35;;;;;;;-0.28;71.99;93032.94;5070585;28;20444;-57
2022/03/03 05:14:52;;;;;;;32.00;18.00;;;;;;;-0.18;71.51;93031.50;5070461;28;20029;-55
2022/03/03 05:17:17;;;;;;;30.45;19.05;;;;;;;-0.29;71.89;93030.72;5069603;28;20660;-52
2022/03/03 05:19:43;;;;;;;31.52;17.80;;;;;;;-0.21;72.01;93029.75;5070058;28;20085;-53
2022/03/03 05:22:08;;;;;;;25.02;16.85;;;;;;;-0.22;71.17;93030.25;5077909;28;20028;-60
2022/03/03 05:24:34;;;;;;;29.63;17.98;;;;;;;-0.17;71.66;93038.41;5090556;28;20019;-58
2022/03/03 05:26:59;;;;;;;30.50;18.25;;;;;;;-0.08;72.11;93043.59;5090542;28;20020;-59
2022/03/03 05:29:27;;;;;;;30.65;18.77;;;;;;;-0.20;71.77;93044.81;5090593;28;20389;-58
2022/03/03 05:31:54;;;;;;;33.33;19.10;;;;;;;-0.07;71.57;93047.81;5090515;28;20046;-59
2022/03/03 05:34:19;;;;;;;26.95;17.58;;;;;;;0.06;71.20;93046.59;5090466;28;20027;-59
2022/03/03 05:36:44;;;;;;;34.95;20.55;;;;;;;-0.04;71.05;93046.81;5090059;28;20028;-58
2022/03/03 05:39:11;;;;;;;37.20;22.00;;;;;;;-0.08;72.26;93053.72;5090498;28;20028;-58
2022/03/03 05:41:36;;;;;;;24.73;18.02;;;;;;;0.02;72.16;93055.00;5104830;28;20030;-51
2022/03/03 05:44:02;;;;;;;32.75;20.67;;;;;;;0.20;71.34;93051.78;5110023;28;20031;-52
2022/03/03 05:46:28;;;;;;;31.45;20.45;;;;;;;-0.03;71.30;93031.28;5092613;28;20103;-55
2022/03/03 05:48:53;;;;;;;37.03;18.90;;;;;;;-0.15;72.35;93040.63;5110631;28;20039;-57
2022/03/03 05:51:19;;;;;;;40.83;23.63;;;;;;;0.03;72.51;93042.88;5110740;28;20633;-57
2022/03/03 05:53:45;;;;;;;121.80;52.08;;;;;;;0.08;72.75;93041.41;5110430;28;20031;-58
2022/03/03 05:56:12;;;;;;;112.72;45.15;;;;;;;-0.11;73.07;93041.88;5110044;28;20039;-58
2022/03/03 05:58:48;;;;;;;33.08;21.52;;;;;;;-0.21;73.89;93039.88;5075812;28;20024;-58
2022/03/03 06:01:15;;;;;;;42.72;22.38;;;;;;;-0.23;73.64;93043.06;5090148;28;20031;-60
2022/03/03 06:03:41;;;;;;;28.33;18.13;;;;;;;-0.09;73.68;93049.53;5088608;28;20072;-48
2022/03/03 06:06:16;;;;;;;28.38;17.63;;;;;;;0.00;73.02;93046.59;5089974;28;20078;-49
2022/03/03 06:08:53;;;;;;;24.67;16.30;;;;;;;-0.11;73.18;93043.84;5090110;28;20035;-51
2022/03/03 06:11:21;;;;;;;25.05;17.85;;;;;;;-0.23;73.55;93053.19;5089998;28;20035;-51
2022/03/03 06:13:48;;;;;;;28.33;17.75;;;;;;;-0.16;74.11;93039.16;5089951;28;20039;-53
2022/03/03 06:16:20;;;;;;;27.63;16.75;;;;;;;-0.05;72.96;93050.78;5089969;28;20032;-51
2022/03/03 06:18:47;;;;;;;30.30;16.35;;;;;;;-0.20;73.05;93046.78;5089823;28;20027;-51
2022/03/03 06:21:14;;;;;;;27.95;16.63;;;;;;;-0.26;74.12;93046.03;5089851;28;20040;-50
2022/03/03 06:23:39;;;;;;;108.53;46.45;;;;;;;-0.11;73.97;93050.00;5090056;28;20019;-51
2022/03/03 06:26:07;;;;;;;36.40;20.98;;;;;;;-0.03;73.06;93045.59;5090168;28;20454;-51
2022/03/03 06:28:33;;;;;;;34.10;18.63;;;;;;;-0.06;73.12;93051.25;5090066;28;20718;-53
2022/03/03 06:30:59;;;;;;;33.80;18.60;;;;;;;-0.10;73.03;93048.78;5088647;28;20031;-49
2022/03/03 06:33:25;;;;;;;45.25;24.13;;;;;;;-0.09;72.33;93046.81;5089770;28;20106;-49
2022/03/03 06:35:51;;;;;;;33.20;19.88;;;;;;;-0.29;73.99;93044.28;5089594;28;20654;-52
2022/03/03 06:38:17;;;;;;;31.23;20.63;;;;;;;-0.33;73.95;93051.94;5089672;28;20059;-51
2022/03/03 06:40:42;;;;;;;31.90;19.25;;;;;;;-0.22;73.80;93041.13;5089137;28;20108;-52
2022/03/03 06:43:08;;;;;;;26.42;16.30;;;;;;;-0.10;72.50;93054.22;5089621;28;20032;-52
2022/03/03 06:45:34;;;;;;;23.88;15.82;;;;;;;-0.10;72.90;93048.78;5089778;28;20024;-53
2022/03/03 06:48:04;;;;;;;34.40;18.38;;;;;;;0.13;71.69;93052.28;5089848;28;20177;-52
2022/03/03 06:50:30;;;;;;;28.92;18.98;;;;;;;-0.04;72.09;93059.63;5088861;28;20119;-52
2022/03/03 06:52:56;;;;;;;34.17;21.38;;;;;;;-0.14;72.95;93059.13;5089160;28;20028;-49
2022/03/03 06:55:24;;;;;;;23.30;16.17;;;;;;;-0.07;72.56;93055.97;5069448;28;20433;-52
2022/03/03 06:57:55;;;;;;;24.63;16.45;;;;;;;0.06;71.83;93063.63;5072932;28;20113;-52
2022/03/03 07:00:26;;;;;;;27.65;17.38;;;;;;;-0.11;73.04;93050.00;5073295;28;20107;-51
2022/03/03 07:02:52;;;;;;;29.17;16.85;;;;;;;-0.20;72.97;93061.09;5063677;28;20052;-52
2022/03/03 07:05:19;;;;;;;28.30;17.60;;;;;;;0.00;72.83;93052.75;5052769;28;20072;-53
2022/03/03 07:07:46;;;;;;;26.52;15.45;;;;;;;0.27;72.61;93062.19;5052774;28;20029;-56
2022/03/03 07:10:12;;;;;;;27.65;18.27;;;;;;;0.42;71.65;93056.50;5051336;28;20087;-57
2022/03/03 07:12:39;;;;;;;29.70;19.27;;;;;;;0.52;71.89;93066.63;5052596;28;20029;-57
2022/03/03 07:15:05;;;;;;;32.92;20.60;;;;;;;0.44;72.23;93057.50;5053375;28;20032;-56
2022/03/03 07:17:53;;;;;;;26.70;18.33;;;;;;;0.52;72.58;93057.75;5052618;28;20043;-57
2022/03/03 07:20:46;;;;;;;26.05;17.98;;;;;;;0.41;72.95;93068.63;5070231;28;20025;-58
2022/03/03 07:23:42;;;;;;;30.92;19.42;;;;;;;0.51;72.56;93069.84;5070736;28;20043;-57
2022/03/03 07:26:10;;;;;;;34.72;19.13;;;;;;;0.25;73.16;93053.78;5064420;28;20678;-60
2022/03/03 07:28:39;;;;;;;30.60;18.25;;;;;;;0.39;74.16;93069.09;5063376;28;20086;-60
2022/03/03 07:31:06;;;;;;;47.80;27.60;;;;;;;0.47;74.25;93063.94;5059531;28;20037;-62
2022/03/03 07:33:47;;;;;;;29.85;18.70;;;;;;;0.58;73.71;93056.53;5049385;28;20044;-59
2022/03/03 07:36:24;;;;;;;33.40;21.67;;;;;;;0.58;73.46;93058.50;5050224;28;20033;-55
2022/03/03 07:38:57;;;;;;;25.58;15.52;;;;;;;0.65;72.46;93049.88;5050280;28;20025;-58
2022/03/03 07:41:23;;;;;;;29.40;18.40;;;;;;;0.77;72.22;93056.75;5077292;28;20040;-62
2022/03/03 07:43:50;;;;;;;37.58;21.83;;;;;;;0.73;72.67;93064.44;5090039;28;20054;-58
2022/03/03 07:46:15;;;;;;;31.85;19.73;;;;;;;0.64;72.56;93062.69;5090276;28;20020;-58
2022/03/03 07:48:44;;;;;;;43.60;23.05;;;;;;;0.51;73.51;93067.88;5089929;28;20039;-54
2022/03/03 07:51:10;;;;;;;26.77;16.98;;;;;;;0.56;72.80;93069.13;5089877;28;20115;-53
2022/03/03 07:53:36;;;;;;;27.70;19.60;;;;;;;0.50;73.80;93074.53;5089806;28;20042;-54
2022/03/03 07:56:04;;;;;;;24.70;16.20;;;;;;;0.55;72.55;93070.34;5098961;28;20044;-53
2022/03/03 07:58:32;;;;;;;27.88;16.65;;;;;;;0.59;72.85;93070.84;5110483;28;20613;-56
2022/03/03 08:00:59;;;;;;;25.30;15.52;;;;;;;0.62;72.57;93064.41;5110216;28;20027;-60
2022/03/03 08:03:25;;;;;;;29.02;16.95;;;;;;;0.73;71.98;93072.56;5095797;28;20055;-54
2022/03/03 08:05:55;;;;;;;24.42;14.90;;;;;;;0.86;71.50;93075.53;5088635;28;20036;-60
2022/03/03 08:08:22;;;;;;;28.25;17.30;;;;;;;0.75;71.98;93067.38;5089709;28;20024;-59
2022/03/03 08:10:48;;;;;;;57.17;29.83;;;;;;;0.63;72.12;93063.16;5089735;28;20535;-58
2022/03/03 08:13:15;;;;;;;35.92;20.70;;;;;;;0.85;72.48;93068.59;5089593;28;20514;-58
2022/03/03 08:15:42;;;;;;;26.23;16.75;;;;;;;0.88;71.80;93062.19;5089247;28;20028;-54
2022/03/03 08:18:08;;;;;;;30.63;19.85;;;;;;;1.00;71.00;93063.66;5081903;28;20437;-54
2022/03/03 08:20:35;;;;;;;23.83;16.08;;;;;;;1.16;71.33;93059.41;5069195;28;20029;-50
2022/03/03 08:23:02;;;;;;;25.48;16.02;;;;;;;1.25;70.16;93068.06;5068928;28;20028;-51
2022/03/03 08:25:28;;;;;;;27.17;17.92;;;;;;;1.33;70.02;93062.84;5069201;28;20111;-51
2022/03/03 08:27:54;;;;;;;29.02;18.85;;;;;;;1.45;69.68;93064.31;5068968;28;20036;-50
2022/03/03 08:30:21;;;;;;;28.02;17.13;;;;;;;1.38;70.01;93065.56;5069078;28;20148;-51
2022/03/03 08:33:12;;;;;;;30.13;18.17;;;;;;;1.27;70.88;93070.28;5067761;28;20093;-52
2022/03/03 08:35:40;;;;;;;23.70;14.85;;;;;;;1.16;70.23;93038.41;5068939;28;20036;-48
2022/03/03 08:38:08;;;;;;;31.10;18.47;;;;;;;1.33;70.44;93060.88;5051343;28;20028;-50
2022/03/03 08:40:34;;;;;;;32.92;17.73;;;;;;;1.51;69.90;93073.19;5057439;28;20489;-49
2022/03/03 08:43:02;;;;;;;32.65;17.63;;;;;;;1.43;69.94;93069.47;5088976;28;20055;-51
2022/03/03 08:45:29;;;;;;;27.98;15.63;;;;;;;1.42;69.59;93076.16;5088504;28;20066;-51
2022/03/03 08:48:06;;;;;;;27.05;15.30;;;;;;;1.42;69.52;93071.47;5087658;28;20056;-53
2022/03/03 08:50:35;;;;;;;28.40;16.13;;;;;;;1.47;69.20;93067.97;5087935;28;20107;-52
2022/03/03 08:53:01;;;;;;;30.05;17.73;;;;;;;1.41;69.34;93064.53;5088699;28;20459;-53
2022/03/03 08:55:27;;;;;;;29.40;16.92;;;;;;;1.58;69.02;93071.94;5088515;28;20437;-53
2022/03/03 08:57:53;;;;;;;32.10;17.73;;;;;;;1.63;69.11;93065.72;5087589;28;20245;-54
2022/03/03 09:00:19;;;;;;;29.67;17.15;;;;;;;1.49;68.62;93068.22;5086465;28;20181;-54
2022/03/03 09:02:46;;;;;;;28.77;17.83;;;;;;;1.56;69.27;93069.69;5078523;28;20020;-51
2022/03/03 09:05:12;;;;;;;32.47;17.45;;;;;;;1.50;68.79;93041.78;5066662;28;20031;-51
2022/03/03 09:07:38;;;;;;;24.92;16.02;;;;;;;1.77;68.21;93064.69;5078152;28;20036;-54
2022/03/03 09:10:04;;;;;;;27.17;14.88;;;;;;;1.80;68.01;93056.25;5086936;28;20047;-50
2022/03/03 09:12:30;;;;;;;26.40;16.23;;;;;;;1.66;68.13;93062.75;5087022;28;20109;-56
2022/03/03 09:14:55;;;;;;;31.23;17.88;;;;;;;1.39;68.66;93039.84;5088613;28;20024;-52
2022/03/03 09:17:21;;;;;;;26.35;15.88;;;;;;;1.54;67.97;93059.31;5082912;28;20082;-52
2022/03/03 09:19:47;;;;;;;30.58;17.60;;;;;;;1.49;68.13;93060.06;5076655;28;20040;-49
2022/03/03 09:22:13;;;;;;;23.77;15.48;;;;;;;1.51;67.59;93067.75;5076288;28;20386;-56
2022/03/03 09:24:38;;;;;;;23.92;15.82;;;;;;;1.24;68.13;93066.56;5075666;28;20838;-54
2022/03/03 09:27:04;;;;;;;30.05;16.05;;;;;;;1.15;67.96;93055.25;5078008;28;20034;-52
2022/03/03 09:29:33;;;;;;;24.30;15.55;;;;;;;1.16;67.41;93068.31;5075153;28;20028;-55
2022/03/03 09:32:02;;;;;;;26.90;15.48;;;;;;;1.04;69.23;93068.84;5073654;28;20150;-52
2022/03/03 09:34:28;;;;;;;31.48;18.58;;;;;;;1.00;69.06;93071.81;5076143;28;20032;-52
2022/03/03 09:36:55;;;;;;;31.25;16.88;;;;;;;1.11;69.02;93071.03;5076337;28;20036;-53
2022/03/03 09:39:20;;;;;;;26.52;16.90;;;;;;;0.92;68.71;93073.53;5076193;28;20020;-53
2022/03/03 09:41:46;;;;;;;30.73;16.77;;;;;;;1.08;68.94;93077.50;5078585;28;20039;-51
2022/03/03 09:44:13;;;;;;;26.45;15.50;;;;;;;1.08;69.08;93080.94;5081897;28;20051;-53
2022/03/03 09:46:39;;;;;;;21.55;14.55;;;;;;;1.09;68.77;93078.94;5080354;28;20024;-54
2022/03/03 09:49:04;;;;;;;28.05;15.10;;;;;;;1.18;68.15;93063.13;5078018;28;20040;-52
2022/03/03 09:51:30;;;;;;;25.83;15.07;;;;;;;1.28;66.89;93069.03;5075887;28;20024;-54
2022/03/03 09:53:56;;;;;;;28.70;15.63;;;;;;;1.34;66.93;93069.78;5078975;28;20119;-56
2022/03/03 09:56:22;;;;;;;21.92;15.88;;;;;;;1.44;67.48;93066.28;5075609;28;20040;-53
2022/03/03 09:58:47;;;;;;;23.73;14.25;;;;;;;1.51;65.56;93073.94;5075364;28;20036;-56
2022/03/03 10:01:13;;;;;;;19.48;13.40;;;;;;;1.62;65.82;93067.72;5073142;28;20036;-55
2022/03/03 10:03:39;;;;;;;27.27;15.10;;;;;;;1.46;65.71;93060.34;5073305;28;20024;-52
2022/03/03 10:06:05;;;;;;;27.63;17.38;;;;;;;1.57;66.74;93065.00;5075441;28;20029;-51
2022/03/03 10:08:31;;;;;;;22.00;14.30;;;;;;;1.64;65.63;93059.78;5075931;28;20103;-54
2022/03/03 10:10:58;;;;;;;22.38;14.82;;;;;;;1.74;64.98;93074.59;5085785;28;20028;-47
2022/03/03 10:13:25;;;;;;;21.73;14.20;;;;;;;1.78;63.76;93064.16;5081264;28;20024;-50
2022/03/03 10:15:52;;;;;;;24.83;14.80;;;;;;;1.71;65.05;93066.69;5085938;28;20028;-46
2022/03/03 10:18:18;;;;;;;26.55;15.57;;;;;;;1.75;64.81;93069.88;5082279;28;20032;-46
2022/03/03 10:20:54;;;;;;;24.05;15.63;;;;;;;1.69;65.55;93069.16;5076005;28;20456;-47
2022/03/03 10:23:24;;;;;;;28.65;15.93;;;;;;;1.68;65.24;93064.97;5075878;28;20036;-52
2022/03/03 10:25:52;;;;;;;22.30;14.73;;;;;;;1.80;65.31;93055.53;5076638;28;20119;-49
2022/03/03 10:28:20;;;;;;;26.13;14.93;;;;;;;1.89;64.24;93061.41;5077396;28;20024;-48
2022/03/03 10:31:10;;;;;;;22.52;15.07;;;;;;;2.03;64.21;93051.44;5078802;28;20477;-51
2022/03/03 10:33:40;;;;;;;38.40;15.98;;;;;;;2.17;64.12;93053.81;5078383;28;20052;-47
2022/03/03 10:36:23;;;;;;;36.92;18.30;;;;;;;2.26;63.28;93052.78;5080386;28;20107;-47
2022/03/03 10:38:53;;;;;;;28.50;15.10;;;;;;;2.44;63.23;93057.63;5080799;28;20029;-49
2022/03/03 10:41:40;;;;;;;32.10;16.40;;;;;;;2.43;62.41;93045.25;5081052;28;20032;-49
2022/03/03 10:44:09;;;;;;;20.25;12.75;;;;;;;2.38;62.60;93043.31;5081304;28;20020;-48
2022/03/03 10:46:36;;;;;;;22.05;14.43;;;;;;;2.23;62.56;93043.63;5079683;28;20414;-48
2022/03/03 10:49:19;;;;;;;28.65;13.88;;;;;;;2.24;63.51;93039.69;5080587;28;20036;-46
2022/03/03 10:51:44;;;;;;;27.52;14.50;;;;;;;2.18;62.93;93046.41;5080409;28;20035;-47
2022/03/03 10:54:10;;;;;;;23.23;14.77;;;;;;;2.28;64.34;93042.88;5078785;28;20025;-47
2022/03/03 10:56:46;;;;;;;25.60;15.35;;;;;;;2.44;63.17;93035.84;5076992;28;20067;-48
2022/03/03 10:59:20;;;;;;;21.83;14.45;;;;;;;2.46;62.93;93038.03;5082236;28;20505;-47
2022/03/03 11:01:46;;;;;;;22.25;13.57;;;;;;;2.43;62.27;93042.50;5082895;28;20508;-47
2022/03/03 11:04:17;;;;;;;22.48;13.02;;;;;;;2.31;63.02;93038.41;5078486;28;20025;-47
2022/03/03 11:06:43;;;;;;;26.10;15.27;;;;;;;2.28;62.97;93042.13;5079814;28;20020;-48
2022/03/03 11:09:09;;;;;;;21.23;15.05;;;;;;;2.23;63.54;93046.34;5081042;28;20020;-50
2022/03/03 11:11:34;;;;;;;28.30;14.90;;;;;;;2.16;63.51;93046.16;5078640;28;20060;-52
2022/03/03 11:14:00;;;;;;;30.52;16.45;;;;;;;2.26;62.96;93047.34;5079794;28;20023;-51
2022/03/03 11:16:26;;;;;;;24.80;15.93;;;;;;;2.20;63.82;93041.19;5061790;28;20365;-51
2022/03/03 11:18:52;;;;;;;22.70;15.35;;;;;;;2.27;63.69;93048.81;5060451;28;20029;-51
2022/03/03 11:21:18;;;;;;;22.55;16.35;;;;;;;2.32;63.58;93045.31;5079955;28;20481;-48